Time;durP1;ratioP1;P1;durP2;ratioP2;P2;SDS_P1;SDS_P2;PMS_P1;PMS_P2;Temp;Humidity;BMP_temperature;BMP_pressure;BME280_temperature;BME280_humidity;BME280_pressure;Samples;Min_cycle;Max_cycle;Signal;HPM_P1;HPM_P2
2022/12/26 00:00:57;;;;;;;10.68;3.80;;;13.00;99.90;;;;;;2074627;28;20112;-71
2022/12/26 00:01:59;;;;;;;4.80;3.17;;;13.00;99.90;;;;;;2074336;28;20112;-71
2022/12/26 00:02:59;;;;;;;4.05;2.70;;;13.00;99.90;;;;;;2074668;28;20037;-71
2022/12/26 00:04:00;;;;;;;3.45;3.00;;;13.00;99.90;;;;;;2075552;28;20136;-71
2022/12/26 00:05:01;;;;;;;3.35;2.90;;;13.00;99.90;;;;;;2071686;28;20044;-71
2022/12/26 00:06:01;;;;;;;3.42;2.55;;;13.00;99.90;;;;;;2074952;28;20043;-71
2022/12/26 00:07:02;;;;;;;3.05;2.60;;;13.00;99.90;;;;;;2075675;28;20480;-71
2022/12/26 00:08:03;;;;;;;3.92;2.30;;;13.00;99.90;;;;;;2074369;28;20053;-71
2022/12/26 00:09:05;;;;;;;2.85;2.63;;;13.00;99.90;;;;;;2072554;28;20571;-71
2022/12/26 00:10:06;;;;;;;4.05;2.55;;;12.90;99.90;;;;;;2074902;28;20037;-71
2022/12/26 00:11:07;;;;;;;4.10;2.40;;;12.90;99.90;;;;;;2075131;28;20049;-71
2022/12/26 00:12:07;;;;;;;4.53;3.13;;;12.90;99.90;;;;;;2075064;28;20036;-71
2022/12/26 00:13:08;;;;;;;3.03;2.80;;;12.90;99.90;;;;;;2074712;28;20056;-71
2022/12/26 00:14:11;;;;;;;3.03;2.75;;;12.90;99.90;;;;;;2075866;28;20022;-71
2022/12/26 00:15:12;;;;;;;3.03;2.72;;;13.00;99.90;;;;;;2075407;28;20014;-71
2022/12/26 00:16:18;;;;;;;4.07;2.65;;;12.90;99.90;;;;;;2074921;28;20092;-71
2022/12/26 00:17:18;;;;;;;4.13;3.47;;;12.90;99.90;;;;;;2077286;28;20029;-71
2022/12/26 00:18:19;;;;;;;6.10;2.95;;;12.90;99.90;;;;;;2074124;28;20083;-71
2022/12/26 00:19:19;;;;;;;3.72;2.95;;;13.00;99.90;;;;;;2074637;28;20115;-71
2022/12/26 00:20:20;;;;;;;3.13;2.80;;;13.00;99.90;;;;;;2075361;28;20071;-71
2022/12/26 00:21:22;;;;;;;3.20;2.90;;;13.00;99.90;;;;;;2074912;28;20033;-71
2022/12/26 00:22:23;;;;;;;4.43;3.03;;;12.90;99.90;;;;;;2073798;28;20041;-71
2022/12/26 00:23:23;;;;;;;4.35;3.10;;;12.90;99.90;;;;;;2072313;28;20029;-71
2022/12/26 00:24:24;;;;;;;3.58;2.97;;;12.90;99.90;;;;;;2073985;28;20038;-71
2022/12/26 00:25:24;;;;;;;3.25;2.95;;;12.90;99.90;;;;;;2074481;28;20068;-71
2022/12/26 00:26:27;;;;;;;4.20;3.53;;;12.90;99.90;;;;;;2072598;28;20041;-71
2022/12/26 00:27:28;;;;;;;3.47;3.17;;;12.90;99.90;;;;;;2074653;28;20121;-71
2022/12/26 00:28:28;;;;;;;5.13;3.53;;;12.90;99.90;;;;;;2074400;28;20025;-71
2022/12/26 00:29:29;;;;;;;5.43;3.38;;;12.80;99.90;;;;;;2073031;28;20469;-71
2022/12/26 00:30:30;;;;;;;8.77;3.33;;;12.90;99.90;;;;;;2074700;28;20018;-71
2022/12/26 00:31:33;;;;;;;3.13;2.83;;;12.80;99.90;;;;;;2074734;28;20139;-71
2022/12/26 00:32:33;;;;;;;4.05;2.92;;;12.80;99.90;;;;;;2075461;28;20592;-71
2022/12/26 00:33:35;;;;;;;3.08;2.80;;;12.90;99.90;;;;;;2073694;28;20517;-71
2022/12/26 00:34:36;;;;;;;3.50;3.20;;;12.90;99.90;;;;;;2072416;28;20029;-71
2022/12/26 00:35:36;;;;;;;3.15;2.90;;;12.90;99.90;;;;;;2073051;28;20585;-71
2022/12/26 00:36:37;;;;;;;4.07;3.00;;;12.90;99.90;;;;;;2076236;28;20017;-71
2022/12/26 00:37:37;;;;;;;2.70;2.50;;;12.80;99.90;;;;;;2075443;28;20029;-71
2022/12/26 00:38:39;;;;;;;3.17;2.90;;;12.90;99.90;;;;;;2074025;28;20819;-71
2022/12/26 00:39:39;;;;;;;3.80;3.05;;;12.90;99.90;;;;;;2074747;28;20658;-71
2022/12/26 00:40:42;;;;;;;3.13;2.83;;;12.80;99.90;;;;;;2074086;28;20073;-71
2022/12/26 00:41:42;;;;;;;3.97;3.22;;;12.90;99.90;;;;;;2072554;28;20029;-71
2022/12/26 00:42:43;;;;;;;3.95;3.20;;;12.80;99.90;;;;;;2074869;28;20481;-71
2022/12/26 00:43:43;;;;;;;3.30;2.90;;;12.80;99.90;;;;;;2071430;28;20033;-71
2022/12/26 00:44:44;;;;;;;3.80;3.20;;;12.80;99.90;;;;;;2075128;28;20032;-71
2022/12/26 00:45:47;;;;;;;3.95;3.15;;;12.80;99.90;;;;;;2076109;28;20037;-71
2022/12/26 00:46:47;;;;;;;3.40;3.10;;;12.80;99.90;;;;;;2073409;28;20033;-71
2022/12/26 00:47:48;;;;;;;4.53;3.25;;;12.90;99.90;;;;;;2073204;28;20112;-71
2022/12/26 00:48:49;;;;;;;3.00;2.80;;;12.80;99.90;;;;;;2075546;28;20026;-71
2022/12/26 00:49:49;;;;;;;4.55;2.60;;;12.90;99.90;;;;;;2072799;28;20497;-71
2022/12/26 00:50:50;;;;;;;2.97;2.40;;;12.90;99.90;;;;;;2074842;28;20113;-71
2022/12/26 00:51:51;;;;;;;2.05;1.95;;;12.90;99.90;;;;;;2073949;28;20026;-71
2022/12/26 00:52:51;;;;;;;2.03;1.92;;;12.80;99.90;;;;;;2072706;28;20071;-71
2022/12/26 00:53:52;;;;;;;3.72;2.20;;;12.80;99.90;;;;;;2072958;28;20477;-71
2022/12/26 00:54:52;;;;;;;2.40;2.30;;;12.80;99.90;;;;;;2073593;28;20442;-71
2022/12/26 00:55:53;;;;;;;2.13;1.73;;;12.90;99.90;;;;;;2074524;28;20033;-71
2022/12/26 00:56:53;;;;;;;1.83;1.73;;;12.90;99.90;;;;;;2073141;28;20057;-71
2022/12/26 00:57:54;;;;;;;1.92;1.70;;;12.90;99.90;;;;;;2073573;28;20026;-71
2022/12/26 00:58:55;;;;;;;1.67;1.58;;;12.80;99.90;;;;;;2072585;28;20453;-71
2022/12/26 00:59:55;;;;;;;1.70;1.60;;;12.80;99.90;;;;;;2071871;28;20091;-71
2022/12/26 01:01:14;;;;;;;2.85;1.83;;;12.80;99.90;;;;;;2072966;28;20038;-71
2022/12/26 01:03:34;;;;;;;1.70;1.45;;;12.80;99.90;;;;;;2074479;28;20021;-71
2022/12/26 01:04:34;;;;;;;1.70;1.60;;;12.80;99.90;;;;;;2072460;28;20056;-71
2022/12/26 01:05:38;;;;;;;2.28;1.52;;;12.80;99.90;;;;;;2075133;28;20037;-71
2022/12/26 01:06:39;;;;;;;2.22;1.70;;;12.80;99.90;;;;;;2074455;28;20090;-71
2022/12/26 01:07:40;;;;;;;2.47;1.92;;;12.80;99.90;;;;;;2074113;28;20060;-71
2022/12/26 01:08:41;;;;;;;1.70;1.60;;;12.80;99.90;;;;;;2071873;28;20064;-71
2022/12/26 01:09:42;;;;;;;1.92;1.83;;;12.80;99.90;;;;;;2073667;28;20026;-71
2022/12/26 01:10:44;;;;;;;1.83;1.73;;;12.70;99.90;;;;;;2073178;28;20053;-71
2022/12/26 01:11:44;;;;;;;1.98;1.77;;;12.70;99.90;;;;;;2072904;28;20042;-71
2022/12/26 01:12:45;;;;;;;1.90;1.80;;;12.70;99.90;;;;;;2071804;28;20032;-71
2022/12/26 01:13:46;;;;;;;1.70;1.60;;;12.70;99.90;;;;;;2073255;28;20045;-71
2022/12/26 01:14:46;;;;;;;2.00;1.90;;;12.70;99.90;;;;;;2073403;28;20069;-71
2022/12/26 01:15:51;;;;;;;2.40;2.20;;;12.70;99.90;;;;;;2073925;28;20025;-71
2022/12/26 01:16:52;;;;;;;2.55;1.90;;;12.70;99.90;;;;;;2075012;28;20033;-71
2022/12/26 01:17:52;;;;;;;1.98;1.88;;;12.70;99.90;;;;;;2073586;28;20025;-71
2022/12/26 01:18:53;;;;;;;2.20;2.00;;;12.70;99.90;;;;;;2073715;28;20034;-71
2022/12/26 01:19:54;;;;;;;2.22;2.10;;;12.70;99.90;;;;;;2074961;28;20034;-71
2022/12/26 01:21:00;;;;;;;2.08;1.98;;;12.70;99.90;;;;;;2076598;28;20037;-71
2022/12/26 01:22:01;;;;;;;2.55;2.35;;;12.70;99.90;;;;;;2074943;28;20038;-71
2022/12/26 01:23:01;;;;;;;2.42;2.15;;;12.60;99.90;;;;;;2072871;28;20034;-71
2022/12/26 01:24:02;;;;;;;2.45;2.33;;;12.60;99.90;;;;;;2073614;28;20496;-71
2022/12/26 01:25:03;;;;;;;3.10;2.58;;;12.60;99.90;;;;;;2074347;28;20837;-71
2022/12/26 01:26:05;;;;;;;2.75;2.55;;;12.60;99.90;;;;;;2072906;28;20041;-71
2022/12/26 01:27:05;;;;;;;2.55;2.35;;;12.60;99.90;;;;;;2073212;28;20060;-71
2022/12/26 01:28:06;;;;;;;2.70;2.50;;;12.60;99.90;;;;;;2073844;28;20040;-71
2022/12/26 01:29:08;;;;;;;2.50;2.30;;;12.60;99.90;;;;;;2071647;28;20120;-71
2022/12/26 01:30:09;;;;;;;2.42;2.20;;;12.70;99.90;;;;;;2075168;28;20044;-71
2022/12/26 01:31:09;;;;;;;2.53;2.38;;;12.60;99.90;;;;;;2063345;28;20032;-71
2022/12/26 01:32:10;;;;;;;2.60;2.40;;;12.70;99.90;;;;;;2072494;28;20041;-71
2022/12/26 01:33:10;;;;;;;3.13;2.20;;;12.70;99.90;;;;;;2076785;28;20030;-71
2022/12/26 01:34:11;;;;;;;2.95;2.60;;;12.70;99.90;;;;;;2075632;28;20115;-71
2022/12/26 01:35:11;;;;;;;2.70;2.50;;;12.70;99.90;;;;;;2074124;28;20032;-71
2022/12/26 01:36:12;;;;;;;2.72;2.38;;;12.70;99.90;;;;;;2071925;28;20025;-71
2022/12/26 01:37:14;;;;;;;2.58;2.38;;;12.70;99.90;;;;;;2072564;28;20021;-71
2022/12/26 01:38:15;;;;;;;2.70;2.50;;;12.70;99.90;;;;;;2073587;28;20062;-71
2022/12/26 01:39:15;;;;;;;2.47;2.38;;;12.70;99.90;;;;;;2072714;28;20105;-71
2022/12/26 01:40:16;;;;;;;3.15;2.80;;;12.70;99.90;;;;;;2073745;28;20401;-71
2022/12/26 01:41:18;;;;;;;2.55;2.35;;;12.70;99.90;;;;;;2074826;28;20033;-71
2022/12/26 01:42:21;;;;;;;2.95;2.75;;;12.70;99.90;;;;;;2073326;28;20033;-71
2022/12/26 01:43:22;;;;;;;2.65;2.45;;;12.70;99.90;;;;;;2073063;28;20037;-71
2022/12/26 01:44:53;;;;;;;2.83;2.53;;;12.70;99.90;;;;;;2069329;28;20026;-71
2022/12/26 01:45:53;;;;;;;4.32;2.50;;;12.70;99.90;;;;;;2073620;28;20032;-71
2022/12/26 01:46:54;;;;;;;3.70;2.95;;;12.60;99.90;;;;;;2074552;28;20891;-71
2022/12/26 01:48:02;;;;;;;2.50;2.28;;;12.60;99.90;;;;;;2075024;28;20087;-71
2022/12/26 01:49:14;;;;;;;2.90;2.60;;;12.60;99.90;;;;;;2072749;28;20029;-71
2022/12/26 01:50:33;;;;;;;2.70;2.50;;;12.60;99.90;;;;;;2074047;28;20116;-71
2022/12/26 01:51:38;;;;;;;3.20;2.70;;;12.60;99.90;;;;;;2073702;28;20446;-71
2022/12/26 01:52:44;;;;;;;3.00;2.70;;;12.60;99.90;;;;;;2071953;28;20091;-71
2022/12/26 01:53:48;;;;;;;3.15;2.85;;;12.60;99.90;;;;;;2073389;28;20030;-71
2022/12/26 01:54:52;;;;;;;2.95;2.70;;;12.70;99.90;;;;;;2074632;28;20520;-71
2022/12/26 01:56:01;;;;;;;2.80;2.60;;;12.70;99.90;;;;;;2073009;28;20034;-71
2022/12/26 01:57:06;;;;;;;4.30;2.78;;;12.70;99.90;;;;;;2074096;28;20504;-71
2022/12/26 01:58:16;;;;;;;3.08;2.85;;;12.60;99.90;;;;;;2074488;28;20044;-71
2022/12/26 01:59:20;;;;;;;3.10;2.80;;;12.70;99.90;;;;;;2074008;28;20022;-71
2022/12/26 02:00:21;;;;;;;3.22;2.92;;;12.60;99.90;;;;;;2072506;28;20104;-71
2022/12/26 02:01:28;;;;;;;4.53;3.08;;;12.60;99.90;;;;;;2073732;28;20040;-71
2022/12/26 02:02:29;;;;;;;2.97;2.78;;;12.60;99.90;;;;;;2072741;28;20029;-71
2022/12/26 02:06:13;;;;;;;3.78;3.35;;;12.60;99.90;;;;;;2075090;28;20042;-71
2022/12/26 02:07:14;;;;;;;5.47;4.00;;;12.60;99.90;;;;;;2072445;28;20415;-71
2022/12/26 02:08:20;;;;;;;4.30;3.65;;;12.60;99.90;;;;;;2074163;28;20025;-71
2022/12/26 02:09:21;;;;;;;6.20;4.43;;;12.60;99.90;;;;;;2074306;28;20405;-71
2022/12/26 02:10:24;;;;;;;4.72;3.92;;;12.60;99.90;;;;;;2071360;28;20026;-71
2022/12/26 02:11:32;;;;;;;4.32;3.92;;;12.60;99.90;;;;;;2073071;28;20030;-71
2022/12/26 02:12:34;;;;;;;5.13;3.95;;;12.60;99.90;;;;;;2075442;28;20022;-71
2022/12/26 02:13:36;;;;;;;5.97;4.30;;;12.60;99.90;;;;;;2075095;28;20021;-71
2022/12/26 02:14:37;;;;;;;7.38;5.10;;;12.60;99.90;;;;;;2072906;28;20109;-71
2022/12/26 02:15:40;;;;;;;5.57;4.47;;;12.60;99.90;;;;;;2073194;28;20040;-71
2022/12/26 02:16:42;;;;;;;5.40;4.50;;;12.60;99.90;;;;;;2073928;28;20531;-71
2022/12/26 02:17:42;;;;;;;6.38;4.78;;;12.60;99.90;;;;;;2075975;28;20185;-71
2022/12/26 02:18:43;;;;;;;6.72;4.97;;;12.60;99.90;;;;;;2075404;28;20136;-71
2022/12/26 02:20:02;;;;;;;5.50;4.63;;;12.60;99.90;;;;;;2075372;28;20040;-71
2022/12/26 02:21:29;;;;;;;5.35;4.85;;;12.60;99.90;;;;;;2075108;28;20750;-71
2022/12/26 02:22:54;;;;;;;6.53;4.78;;;12.60;99.90;;;;;;2074923;28;20026;-71
2022/12/26 02:24:42;;;;;;;5.35;4.88;;;12.60;99.90;;;;;;2076359;28;20025;-71
2022/12/26 02:26:01;;;;;;;6.70;4.90;;;12.60;99.90;;;;;;2075759;28;20022;-71
2022/12/26 02:27:29;;;;;;;6.13;5.32;;;12.60;99.90;;;;;;2074108;28;20088;-71
2022/12/26 02:28:48;;;;;;;5.63;4.88;;;12.60;99.90;;;;;;2074829;28;20117;-71
2022/12/26 02:30:07;;;;;;;7.70;5.35;;;12.60;99.90;;;;;;2074889;28;20029;-71
2022/12/26 02:31:18;;;;;;;5.75;5.22;;;12.60;99.90;;;;;;2074374;28;20053;-71
2022/12/26 02:32:37;;;;;;;;;;;12.60;99.90;;;;;;2075887;28;20208;-69
2022/12/26 02:34:11;;;;;;;6.50;5.53;;;12.60;99.90;;;;;;2072619;28;19909;-71
2022/12/26 02:35:38;;;;;;;6.00;5.40;;;12.60;99.90;;;;;;2075101;28;20028;-71
2022/12/26 02:37:00;;;;;;;5.70;5.07;;;12.60;99.90;;;;;;2074223;28;20029;-71
2022/12/26 02:38:09;;;;;;;5.57;4.68;;;12.60;99.90;;;;;;2073508;28;20052;-71
2022/12/26 02:39:19;;;;;;;7.43;5.50;;;12.60;99.90;;;;;;2074534;28;20075;-71
2022/12/26 02:41:13;;;;;;;7.43;5.37;;;12.60;99.90;;;;;;2076012;28;20075;-71
2022/12/26 02:42:22;;;;;;;8.80;5.70;;;12.60;99.90;;;;;;2073209;28;20275;-71
2022/12/26 02:43:39;;;;;;;6.22;5.63;;;12.60;99.90;;;;;;2077298;28;20879;-71
2022/12/26 02:48:07;;;;;;;6.78;6.13;;;12.60;99.90;;;;;;2073803;28;20034;-71
2022/12/26 02:49:20;;;;;;;7.72;5.78;;;12.60;99.90;;;;;;2073189;28;20090;-71
2022/12/26 03:13:24;;;;;;;4.78;4.38;;;12.40;99.90;;;;;;2075618;28;20079;-71
2022/12/26 03:14:46;;;;;;;4.78;3.67;;;12.40;99.90;;;;;;2076436;28;20017;-70
2022/12/26 03:17:29;;;;;;;3.78;3.45;;;12.40;99.90;;;;;;2074382;28;20033;-71
2022/12/26 03:18:34;;;;;;;3.25;2.95;;;12.30;99.90;;;;;;2073417;28;20029;-71
2022/12/26 03:19:56;;;;;;;3.88;3.58;;;12.30;99.90;;;;;;2075089;28;20025;-71
2022/12/26 03:20:59;;;;;;;3.58;3.28;;;12.40;99.90;;;;;;2075686;28;20071;-71
2022/12/26 03:22:29;;;;;;;3.50;3.20;;;12.30;99.90;;;;;;2073481;28;20025;-71
2022/12/26 03:23:23;;;;;;;3.25;2.75;;;12.40;99.90;;;;;;2074231;28;20030;-71
2022/12/26 03:26:38;;;;;;;3.13;2.92;;;12.30;99.90;;;;;;2074241;28;20056;-71
2022/12/26 03:27:17;;;;;;;3.53;3.22;;;12.40;99.90;;;;;;2073741;28;20033;-70
2022/12/26 03:28:17;;;;;;;4.45;2.90;;;12.30;99.90;;;;;;2074601;28;20033;-70
2022/12/26 03:30:49;;;;;;;3.53;3.22;;;12.40;99.90;;;;;;2075115;28;20038;-70
2022/12/26 03:31:50;;;;;;;4.35;2.90;;;12.40;99.90;;;;;;2074362;28;20058;-70
2022/12/26 03:32:54;;;;;;;3.90;3.05;;;12.40;99.90;;;;;;2074963;28;20029;-70
2022/12/26 03:34:16;;;;;;;3.55;3.33;;;12.40;99.90;;;;;;2076710;28;20064;-70
2022/12/26 03:35:17;;;;;;;3.08;2.88;;;12.40;99.90;;;;;;2073915;28;20025;-70
2022/12/26 03:36:38;;;;;;;2.65;2.50;;;12.30;99.90;;;;;;2077510;28;20033;-70
2022/12/26 03:37:54;;;;;;;2.70;2.50;;;12.30;99.90;;;;;;2077075;28;20730;-70
2022/12/26 03:39:07;;;;;;;3.58;2.90;;;12.30;99.90;;;;;;2074420;28;20548;-70
2022/12/26 04:19:59;;;;;;;2.25;2.05;;;12.10;99.90;;;;;;2075416;28;20382;-70
2022/12/26 04:41:34;;;;;;;2.22;2.13;;;12.10;99.90;;;;;;2073988;28;20034;-70
2022/12/26 04:44:23;;;;;;;3.22;2.95;;;11.90;99.90;;;;;;2074276;28;20049;-70
2022/12/26 04:45:25;;;;;;;3.22;3.03;;;11.90;99.90;;;;;;2072496;28;20152;-70
2022/12/26 04:46:26;;;;;;;3.42;3.22;;;11.90;99.90;;;;;;2075503;28;20037;-70
2022/12/26 04:47:29;;;;;;;3.53;3.22;;;11.90;99.90;;;;;;2073879;28;20033;-70
2022/12/26 04:51:09;;;;;;;3.55;3.20;;;11.90;99.90;;;;;;2074234;28;20017;-70
2022/12/26 04:52:13;;;;;;;3.40;3.20;;;11.90;99.90;;;;;;2072293;28;20057;-70
2022/12/26 04:53:14;;;;;;;3.63;3.33;;;11.90;99.90;;;;;;2073198;28;20114;-70
2022/12/26 04:54:14;;;;;;;3.35;3.15;;;11.90;99.90;;;;;;2073959;28;20022;-70
2022/12/26 04:55:16;;;;;;;3.05;2.85;;;11.90;99.90;;;;;;2072347;28;20037;-70
2022/12/26 04:56:17;;;;;;;3.28;3.08;;;11.90;99.90;;;;;;2074835;28;20111;-70
2022/12/26 04:57:18;;;;;;;4.63;3.42;;;11.90;99.90;;;;;;2071877;28;20029;-70
2022/12/26 04:58:19;;;;;;;4.00;3.65;;;11.90;99.90;;;;;;2075479;28;20017;-70
2022/12/26 04:59:20;;;;;;;3.30;3.10;;;11.90;99.90;;;;;;2072993;28;20037;-70
2022/12/26 05:00:23;;;;;;;3.35;3.15;;;12.00;99.90;;;;;;2074391;28;20033;-70
2022/12/26 05:09:33;;;;;;;4.50;4.20;;;11.90;99.90;;;;;;2074182;28;20033;-70
2022/12/26 05:10:33;;;;;;;4.50;3.88;;;11.90;99.90;;;;;;2072500;28;20501;-70
2022/12/26 05:11:34;;;;;;;4.60;4.30;;;11.90;99.90;;;;;;2070980;28;20060;-70
2022/12/26 05:12:35;;;;;;;5.15;4.30;;;11.90;99.90;;;;;;2073017;28;20030;-70
2022/12/26 05:13:35;;;;;;;5.80;4.70;;;11.90;99.90;;;;;;2071448;28;20030;-70
2022/12/26 05:14:36;;;;;;;5.45;5.05;;;11.90;99.90;;;;;;2074126;28;20022;-70
2022/12/26 05:28:59;;;;;;;5.88;5.32;;;11.90;99.90;;;;;;2072621;28;20413;-70
2022/12/26 05:29:59;;;;;;;6.18;5.68;;;11.90;99.90;;;;;;2074259;28;20113;-70
2022/12/26 05:31:00;;;;;;;5.70;5.20;;;11.90;99.90;;;;;;2073303;28;20033;-70
2022/12/26 05:32:01;;;;;;;6.05;5.55;;;11.90;99.90;;;;;;2074624;28;20037;-70
2022/12/26 05:34:20;;;;;;;4.80;4.50;;;11.90;99.90;;;;;;2075896;28;20029;-70
2022/12/26 05:35:21;;;;;;;5.35;4.82;;;11.90;99.90;;;;;;2073442;28;20021;-70
2022/12/26 05:36:25;;;;;;;5.45;5.00;;;11.90;99.90;;;;;;2073950;28;20048;-70
2022/12/26 05:37:26;;;;;;;5.07;4.45;;;11.90;99.90;;;;;;2072579;28;20044;-70
2022/12/26 05:38:26;;;;;;;4.57;4.20;;;11.90;99.90;;;;;;2073889;28;20037;-70
2022/12/26 05:39:27;;;;;;;4.40;4.00;;;11.90;99.90;;;;;;2073880;28;20033;-70
2022/12/26 05:40:27;;;;;;;4.25;3.95;;;11.90;99.90;;;;;;2073386;28;20045;-70
2022/12/26 05:41:28;;;;;;;5.13;4.72;;;11.90;99.90;;;;;;2073081;28;20030;-70
2022/12/26 05:42:28;;;;;;;4.40;4.03;;;11.90;99.90;;;;;;2074040;28;20022;-70
2022/12/26 05:43:29;;;;;;;4.57;4.20;;;11.90;99.90;;;;;;2072622;28;20029;-70
2022/12/26 05:44:29;;;;;;;4.75;4.45;;;11.90;99.90;;;;;;2074599;28;20045;-70
2022/12/26 05:45:30;;;;;;;4.82;4.43;;;11.90;99.90;;;;;;2073093;28;20628;-70
2022/12/26 05:46:31;;;;;;;4.32;4.03;;;11.90;99.90;;;;;;2073400;28;20110;-70
2022/12/26 05:47:31;;;;;;;4.63;4.22;;;11.90;99.90;;;;;;2074980;28;20062;-70
2022/12/26 05:48:32;;;;;;;4.80;4.40;;;11.90;99.90;;;;;;2072284;28;20032;-70
2022/12/26 05:49:32;;;;;;;4.85;4.45;;;11.90;99.90;;;;;;2073616;28;20080;-70
2022/12/26 05:50:33;;;;;;;7.07;4.50;;;11.90;99.90;;;;;;2074795;28;20450;-70
2022/12/26 05:51:34;;;;;;;4.75;4.35;;;11.90;99.90;;;;;;2073565;28;20040;-70
2022/12/26 05:52:35;;;;;;;4.97;4.57;;;11.90;99.90;;;;;;2072781;28;20112;-70
2022/12/26 05:53:35;;;;;;;5.03;4.63;;;11.90;99.90;;;;;;2073915;28;20034;-70
2022/12/26 05:54:36;;;;;;;4.70;4.40;;;11.80;99.90;;;;;;2073787;28;20068;-70
2022/12/26 05:55:36;;;;;;;4.72;4.43;;;11.80;99.90;;;;;;2073750;28;20489;-70
2022/12/26 05:56:37;;;;;;;4.40;4.10;;;11.80;99.90;;;;;;2074133;28;20029;-70
2022/12/26 05:57:38;;;;;;;4.75;4.35;;;11.80;99.90;;;;;;2071482;28;20113;-70
2022/12/26 05:58:39;;;;;;;5.40;4.95;;;11.80;99.90;;;;;;2075792;28;20022;-70
2022/12/26 05:59:39;;;;;;;6.10;4.43;;;11.80;99.90;;;;;;2073287;28;20447;-70
2022/12/26 06:00:40;;;;;;;4.55;4.20;;;11.80;99.90;;;;;;2071931;28;20076;-70
2022/12/26 06:01:41;;;;;;;4.97;4.57;;;11.80;99.90;;;;;;2075543;28;20022;-70
2022/12/26 06:02:41;;;;;;;5.05;4.30;;;11.80;99.90;;;;;;2072573;28;20034;-70
2022/12/26 06:03:46;;;;;;;4.43;4.03;;;11.80;99.90;;;;;;2074259;28;20033;-70
2022/12/26 06:04:46;;;;;;;4.75;4.38;;;11.80;99.90;;;;;;2077354;28;20032;-70
2022/12/26 06:05:47;;;;;;;4.30;3.92;;;11.70;99.90;;;;;;2078032;28;20064;-70
2022/12/26 06:06:47;;;;;;;4.30;3.90;;;11.70;99.90;;;;;;2075115;28;20461;-70
2022/12/26 06:07:48;;;;;;;4.40;4.10;;;11.80;99.90;;;;;;2073667;28;20033;-70
2022/12/26 06:08:50;;;;;;;4.65;4.20;;;11.80;99.90;;;;;;2070492;28;20032;-70
2022/12/26 06:09:51;;;;;;;4.75;4.35;;;11.80;99.90;;;;;;2072518;28;20093;-70
2022/12/26 06:10:51;;;;;;;4.65;4.25;;;11.70;99.90;;;;;;2074526;28;20068;-70
2022/12/26 06:11:52;;;;;;;4.85;3.95;;;11.70;99.90;;;;;;2073096;28;20413;-70
2022/12/26 06:12:52;;;;;;;4.70;4.30;;;11.80;99.90;;;;;;2072630;28;20033;-70
2022/12/26 06:13:54;;;;;;;4.18;3.88;;;11.80;99.90;;;;;;2073624;28;20032;-70
2022/12/26 06:14:54;;;;;;;4.68;4.15;;;11.80;99.90;;;;;;2072961;28;20044;-70
2022/12/26 06:15:55;;;;;;;4.78;4.38;;;11.80;99.90;;;;;;2072515;28;20058;-70
2022/12/26 06:16:55;;;;;;;4.55;4.15;;;11.80;99.90;;;;;;2071972;28;20026;-70
2022/12/26 06:17:56;;;;;;;5.20;4.03;;;11.80;99.90;;;;;;2074648;28;20092;-70
2022/12/26 06:18:56;;;;;;;3.85;3.55;;;11.80;99.90;;;;;;2073995;28;20515;-70
2022/12/26 06:19:57;;;;;;;4.63;3.42;;;11.80;99.90;;;;;;2076129;28;20025;-70
2022/12/26 06:20:58;;;;;;;3.90;3.60;;;11.80;99.90;;;;;;2074983;28;20080;-70
2022/12/26 06:21:58;;;;;;;3.90;3.60;;;11.80;99.90;;;;;;2071978;28;20549;-69
2022/12/26 06:22:59;;;;;;;4.22;3.83;;;11.80;99.90;;;;;;2077948;28;20025;-69
2022/12/26 06:23:59;;;;;;;4.50;4.10;;;11.80;99.90;;;;;;2077611;28;20045;-69
2022/12/26 06:25:00;;;;;;;3.80;3.50;;;11.80;99.90;;;;;;2072091;28;20064;-69
2022/12/26 06:26:01;;;;;;;4.60;4.18;;;11.80;99.90;;;;;;2072917;28;20026;-69
2022/12/26 06:27:02;;;;;;;4.25;3.80;;;11.80;99.90;;;;;;2073356;28;20038;-69
2022/12/26 06:28:03;;;;;;;4.00;3.65;;;11.80;99.90;;;;;;2072898;28;20120;-69
2022/12/26 06:29:03;;;;;;;4.03;3.72;;;11.80;99.90;;;;;;2074427;28;20369;-70
2022/12/26 06:30:04;;;;;;;3.75;3.50;;;11.70;99.90;;;;;;2072846;28;20037;-70
2022/12/26 06:31:11;;;;;;;3.97;3.65;;;11.70;99.90;;;;;;2073548;28;20030;-70
2022/12/26 06:32:11;;;;;;;4.50;4.10;;;11.70;99.90;;;;;;2074739;28;20440;-70
2022/12/26 06:33:12;;;;;;;6.43;4.60;;;11.70;99.90;;;;;;2072730;28;20104;-70
2022/12/26 06:34:13;;;;;;;4.25;3.85;;;11.80;99.90;;;;;;2071530;28;20385;-70
2022/12/26 06:35:13;;;;;;;4.15;3.75;;;11.70;99.90;;;;;;2074025;28;20358;-70
2022/12/26 06:36:17;;;;;;;4.30;4.00;;;11.70;99.90;;;;;;2074045;28;20021;-70
2022/12/26 06:37:17;;;;;;;4.22;3.92;;;11.70;99.90;;;;;;2073619;28;20029;-70
2022/12/26 06:38:18;;;;;;;4.38;3.97;;;11.70;99.90;;;;;;2073585;28;20042;-70
2022/12/26 06:39:18;;;;;;;4.50;4.10;;;11.70;99.90;;;;;;2072769;28;20029;-70
2022/12/26 06:40:19;;;;;;;4.80;4.40;;;11.70;99.90;;;;;;2074133;28;20664;-70
2022/12/26 06:41:22;;;;;;;4.55;4.15;;;11.70;99.90;;;;;;2071934;28;20031;-70
2022/12/26 06:42:22;;;;;;;4.53;3.92;;;11.70;99.90;;;;;;2073215;28;20033;-70
2022/12/26 06:43:23;;;;;;;4.82;4.40;;;11.70;99.90;;;;;;2074317;28;20037;-70
2022/12/26 06:44:23;;;;;;;5.20;4.80;;;11.70;99.90;;;;;;2072543;28;20084;-70
2022/12/26 06:45:24;;;;;;;4.57;4.18;;;11.70;99.90;;;;;;2075603;28;20032;-70
2022/12/26 06:46:25;;;;;;;4.97;4.57;;;11.70;99.90;;;;;;2072131;28;20091;-69
2022/12/26 06:47:25;;;;;;;4.13;3.75;;;11.70;99.90;;;;;;2074452;28;20030;-69
2022/12/26 06:48:26;;;;;;;4.25;3.92;;;11.70;99.90;;;;;;2074917;28;20028;-70
2022/12/26 06:49:27;;;;;;;4.50;4.00;;;11.70;99.90;;;;;;2073939;28;20022;-70
2022/12/26 06:50:28;;;;;;;4.75;3.83;;;11.70;99.90;;;;;;2073957;28;20025;-70
2022/12/26 06:51:28;;;;;;;4.07;3.65;;;11.70;99.90;;;;;;2072616;28;20651;-70
2022/12/26 06:52:29;;;;;;;4.43;4.03;;;11.70;99.90;;;;;;2071543;28;20030;-70
2022/12/26 06:53:30;;;;;;;4.18;3.40;;;11.70;99.90;;;;;;2074930;28;20024;-70
2022/12/26 06:54:30;;;;;;;3.90;3.55;;;11.70;99.90;;;;;;2071177;28;20029;-70
2022/12/26 06:55:31;;;;;;;3.58;3.30;;;11.70;99.90;;;;;;2071404;28;20076;-70
2022/12/26 06:56:32;;;;;;;4.10;3.80;;;11.70;99.90;;;;;;2077407;28;20584;-70
2022/12/26 06:57:32;;;;;;;3.70;3.42;;;11.70;99.90;;;;;;2075050;28;20068;-70
2022/12/26 06:58:33;;;;;;;5.00;3.85;;;11.60;99.90;;;;;;2074251;28;20022;-70
2022/12/26 06:59:33;;;;;;;4.90;3.38;;;11.60;99.90;;;;;;2073941;28;20025;-70
2022/12/26 07:00:34;;;;;;;4.00;3.70;;;11.70;99.90;;;;;;2073646;28;20053;-70
2022/12/26 07:01:34;;;;;;;3.95;3.50;;;11.70;99.90;;;;;;2074765;28;20034;-70
2022/12/26 07:02:35;;;;;;;4.53;4.13;;;11.70;99.90;;;;;;2075022;28;20952;-70
2022/12/26 07:03:36;;;;;;;4.45;4.00;;;11.70;99.90;;;;;;2074554;28;20109;-70
2022/12/26 07:04:36;;;;;;;4.22;3.53;;;11.70;99.90;;;;;;2074498;28;20534;-70
2022/12/26 07:05:38;;;;;;;4.10;3.80;;;11.70;99.90;;;;;;2074445;28;20053;-70
2022/12/26 07:06:38;;;;;;;3.78;3.40;;;11.70;99.90;;;;;;2073858;28;20026;-70
2022/12/26 07:07:39;;;;;;;4.72;4.03;;;11.70;99.90;;;;;;2074122;28;20033;-70
2022/12/26 07:08:40;;;;;;;4.28;3.88;;;11.70;99.90;;;;;;2075003;28;20587;-70
2022/12/26 07:09:40;;;;;;;4.93;4.45;;;11.70;99.90;;;;;;2074288;28;20029;-70
2022/12/26 07:10:41;;;;;;;7.28;4.20;;;11.70;99.90;;;;;;2076121;28;20026;-70
2022/12/26 07:11:44;;;;;;;4.38;3.97;;;11.70;99.90;;;;;;2075988;28;20393;-70
2022/12/26 07:12:48;;;;;;;4.35;3.95;;;11.70;99.90;;;;;;2075238;28;20032;-70
2022/12/26 07:13:49;;;;;;;4.07;3.60;;;11.70;99.90;;;;;;2072808;28;20026;-70
2022/12/26 07:14:49;;;;;;;4.90;3.65;;;11.70;99.90;;;;;;2075912;28;20047;-70
2022/12/26 07:15:50;;;;;;;5.22;4.10;;;11.70;99.90;;;;;;2073973;28;20053;-70
2022/12/26 07:16:50;;;;;;;4.95;4.45;;;11.70;99.90;;;;;;2074134;28;20032;-70
2022/12/26 07:17:51;;;;;;;7.35;3.97;;;11.70;99.90;;;;;;2074831;28;21833;-70
2022/12/26 07:18:56;;;;;;;7.53;5.72;;;11.70;99.90;;;;;;2073099;28;20096;-70
2022/12/26 07:19:56;;;;;;;7.93;6.63;;;11.70;99.90;;;;;;2073177;28;20022;-70
2022/12/26 07:20:57;;;;;;;9.15;7.07;;;11.70;99.90;;;;;;2074360;28;20088;-70
2022/12/26 07:21:57;;;;;;;6.93;6.03;;;11.70;99.90;;;;;;2073914;28;20536;-70
2022/12/26 07:22:58;;;;;;;5.57;5.05;;;11.70;99.90;;;;;;2074597;28;20103;-70
2022/12/26 07:23:58;;;;;;;6.05;4.95;;;11.70;99.90;;;;;;2074735;28;20041;-70
2022/12/26 07:24:59;;;;;;;6.07;4.55;;;11.70;99.90;;;;;;2072382;28;20029;-70
2022/12/26 07:26:00;;;;;;;4.95;4.32;;;11.70;99.90;;;;;;2077957;28;20032;-70
2022/12/26 07:27:00;;;;;;;4.38;3.97;;;11.70;99.90;;;;;;2073884;28;20019;-70
2022/12/26 07:28:01;;;;;;;3.92;3.45;;;11.70;99.90;;;;;;2073977;28;20018;-69
2022/12/26 07:29:01;;;;;;;4.65;3.53;;;11.70;99.90;;;;;;2073409;28;20029;-70
2022/12/26 07:30:02;;;;;;;5.20;4.03;;;11.70;99.90;;;;;;2073559;28;20025;-70
2022/12/26 07:31:03;;;;;;;4.00;3.67;;;11.80;99.90;;;;;;2076351;28;20053;-70
2022/12/26 07:32:04;;;;;;;3.67;3.38;;;11.80;99.90;;;;;;2074451;28;20030;-69
2022/12/26 07:33:05;;;;;;;3.97;3.13;;;11.70;99.90;;;;;;2074109;28;20327;-69